sensor_id;sensor_type;location;lat;lon;timestamp;pressure;altitude;pressure_sealevel;temperature;humidity
30875;BME280;17581;43.222;27.924;2024-03-07T00:00:55;100938.50;;;10.42;60.17
30875;BME280;17581;43.222;27.924;2024-03-07T00:03:22;100944.34;;;10.36;60.12
30875;BME280;17581;43.222;27.924;2024-03-07T00:05:49;100949.81;;;10.34;59.68
30875;BME280;17581;43.222;27.924;2024-03-07T00:08:15;100953.81;;;10.29;59.32
30875;BME280;17581;43.222;27.924;2024-03-07T00:10:40;100931.28;;;10.19;59.13
30875;BME280;17581;43.222;27.924;2024-03-07T00:13:09;100942.03;;;10.19;59.09
30875;BME280;17581;43.222;27.924;2024-03-07T00:15:35;100941.41;;;10.15;58.84
30875;BME280;17581;43.222;27.924;2024-03-07T00:18:00;100958.53;;;10.14;58.79
30875;BME280;17581;43.222;27.924;2024-03-07T00:20:26;100934.44;;;10.00;59.35
30875;BME280;17581;43.222;27.924;2024-03-07T00:22:51;100948.47;;;9.93;59.67
30875;BME280;17581;43.222;27.924;2024-03-07T00:25:17;100929.97;;;9.88;59.56
30875;BME280;17581;43.222;27.924;2024-03-07T00:27:45;100933.66;;;9.87;59.70
30875;BME280;17581;43.222;27.924;2024-03-07T00:30:11;100945.78;;;9.93;59.59
30875;BME280;17581;43.222;27.924;2024-03-07T00:32:44;100947.28;;;9.97;59.30
30875;BME280;17581;43.222;27.924;2024-03-07T00:35:10;100944.59;;;9.97;59.10
30875;BME280;17581;43.222;27.924;2024-03-07T00:37:36;100939.13;;;9.85;59.13
30875;BME280;17581;43.222;27.924;2024-03-07T00:40:03;100936.16;;;9.77;58.98
30875;BME280;17581;43.222;27.924;2024-03-07T00:42:28;100938.84;;;9.77;58.90
30875;BME280;17581;43.222;27.924;2024-03-07T00:44:54;100939.06;;;9.74;59.08
30875;BME280;17581;43.222;27.924;2024-03-07T00:47:22;100936.28;;;9.63;58.88
30875;BME280;17581;43.222;27.924;2024-03-07T00:50:19;100946.00;;;9.53;59.24
30875;BME280;17581;43.222;27.924;2024-03-07T00:52:45;100920.78;;;9.43;59.04
30875;BME280;17581;43.222;27.924;2024-03-07T00:55:16;100924.19;;;9.45;59.07
30875;BME280;17581;43.222;27.924;2024-03-07T00:57:41;100935.28;;;9.41;58.97
30875;BME280;17581;43.222;27.924;2024-03-07T01:00:07;100930.00;;;9.39;59.25
30875;BME280;17581;43.222;27.924;2024-03-07T01:02:40;100927.22;;;9.41;59.05
30875;BME280;17581;43.222;27.924;2024-03-07T01:05:09;100932.47;;;9.42;59.07
30875;BME280;17581;43.222;27.924;2024-03-07T01:07:35;100933.97;;;9.46;58.79
30875;BME280;17581;43.222;27.924;2024-03-07T01:10:03;100923.69;;;9.40;58.66
30875;BME280;17581;43.222;27.924;2024-03-07T01:12:32;100921.00;;;9.40;58.77
30875;BME280;17581;43.222;27.924;2024-03-07T01:14:59;100922.94;;;9.38;58.67
30875;BME280;17581;43.222;27.924;2024-03-07T01:17:26;100937.53;;;9.47;59.09
30875;BME280;17581;43.222;27.924;2024-03-07T01:19:51;100938.84;;;9.41;58.40
30875;BME280;17581;43.222;27.924;2024-03-07T01:22:17;100942.69;;;9.37;58.79
30875;BME280;17581;43.222;27.924;2024-03-07T01:24:42;100902.03;;;9.18;58.59
30875;BME280;17581;43.222;27.924;2024-03-07T01:27:08;100926.28;;;9.29;58.64
30875;BME280;17581;43.222;27.924;2024-03-07T01:29:35;100934.75;;;9.36;58.64
30875;BME280;17581;43.222;27.924;2024-03-07T01:32:01;100934.13;;;9.32;58.78
30875;BME280;17581;43.222;27.924;2024-03-07T01:34:28;100933.25;;;9.32;58.60
30875;BME280;17581;43.222;27.924;2024-03-07T01:36:53;100944.19;;;9.41;58.42
30875;BME280;17581;43.222;27.924;2024-03-07T01:39:19;100936.16;;;9.41;58.57
30875;BME280;17581;43.222;27.924;2024-03-07T01:41:44;100945.66;;;9.45;58.36
30875;BME280;17581;43.222;27.924;2024-03-07T01:44:10;100937.84;;;9.42;58.19
30875;BME280;17581;43.222;27.924;2024-03-07T01:46:35;100933.13;;;9.46;58.66
30875;BME280;17581;43.222;27.924;2024-03-07T01:49:01;100924.84;;;9.36;58.36
30875;BME280;17581;43.222;27.924;2024-03-07T01:51:27;100944.41;;;9.51;58.43
30875;BME280;17581;43.222;27.924;2024-03-07T01:53:52;100934.31;;;9.42;58.27
30875;BME280;17581;43.222;27.924;2024-03-07T01:56:18;100937.97;;;9.41;58.25
30875;BME280;17581;43.222;27.924;2024-03-07T01:58:46;100935.91;;;9.44;58.50
30875;BME280;17581;43.222;27.924;2024-03-07T02:01:13;100950.72;;;9.50;58.61
30875;BME280;17581;43.222;27.924;2024-03-07T02:03:41;100941.81;;;9.49;58.53
30875;BME280;17581;43.222;27.924;2024-03-07T02:06:07;100945.88;;;9.55;58.24
30875;BME280;17581;43.222;27.924;2024-03-07T02:08:33;100937.41;;;9.48;58.32
30875;BME280;17581;43.222;27.924;2024-03-07T02:11:00;100900.63;;;9.25;58.32
30875;BME280;17581;43.222;27.924;2024-03-07T02:13:26;100916.38;;;9.29;58.14
30875;BME280;17581;43.222;27.924;2024-03-07T02:15:52;100935.81;;;9.33;58.05
30875;BME280;17581;43.222;27.924;2024-03-07T02:18:19;100941.81;;;9.37;57.86
30875;BME280;17581;43.222;27.924;2024-03-07T02:20:46;100952.03;;;9.44;57.65
30875;BME280;17581;43.222;27.924;2024-03-07T02:23:12;100953.00;;;9.43;57.75
30875;BME280;17581;43.222;27.924;2024-03-07T02:25:37;100953.94;;;9.42;58.06
30875;BME280;17581;43.222;27.924;2024-03-07T02:28:04;100955.59;;;9.45;58.02
30875;BME280;17581;43.222;27.924;2024-03-07T02:30:30;100951.91;;;9.33;57.67
30875;BME280;17581;43.222;27.924;2024-03-07T02:32:59;100944.53;;;9.24;57.92
30875;BME280;17581;43.222;27.924;2024-03-07T02:35:32;100948.94;;;9.25;57.68
30875;BME280;17581;43.222;27.924;2024-03-07T02:37:58;100944.22;;;9.16;57.66
30875;BME280;17581;43.222;27.924;2024-03-07T02:40:24;100950.88;;;9.10;58.45
30875;BME280;17581;43.222;27.924;2024-03-07T02:42:49;100953.56;;;9.23;58.29
30875;BME280;17581;43.222;27.924;2024-03-07T02:45:15;100943.78;;;9.22;58.27
30875;BME280;17581;43.222;27.924;2024-03-07T02:47:41;100949.16;;;9.22;58.07
30875;BME280;17581;43.222;27.924;2024-03-07T02:50:09;100956.63;;;9.29;58.17
30875;BME280;17581;43.222;27.924;2024-03-07T02:52:34;100945.38;;;9.24;57.82
30875;BME280;17581;43.222;27.924;2024-03-07T02:55:00;100953.88;;;9.31;57.96
30875;BME280;17581;43.222;27.924;2024-03-07T02:57:25;100960.97;;;9.32;58.21
30875;BME280;17581;43.222;27.924;2024-03-07T02:59:51;100947.97;;;9.26;58.05
30875;BME280;17581;43.222;27.924;2024-03-07T03:02:16;100963.72;;;9.43;57.74
30875;BME280;17581;43.222;27.924;2024-03-07T03:04:42;100972.53;;;9.45;57.64
30875;BME280;17581;43.222;27.924;2024-03-07T03:07:07;100956.84;;;9.39;57.34
30875;BME280;17581;43.222;27.924;2024-03-07T03:09:33;100956.84;;;9.39;57.37
30875;BME280;17581;43.222;27.924;2024-03-07T03:11:59;100970.38;;;9.50;57.47
30875;BME280;17581;43.222;27.924;2024-03-07T03:14:24;100959.09;;;9.45;57.57
30875;BME280;17581;43.222;27.924;2024-03-07T03:16:50;100961.56;;;9.48;57.25
30875;BME280;17581;43.222;27.924;2024-03-07T03:19:15;100970.81;;;9.57;57.04
30875;BME280;17581;43.222;27.924;2024-03-07T03:21:41;100965.31;;;9.58;57.32
30875;BME280;17581;43.222;27.924;2024-03-07T03:24:07;100965.59;;;9.66;57.19
30875;BME280;17581;43.222;27.924;2024-03-07T03:26:33;100967.78;;;9.61;57.57
30875;BME280;17581;43.222;27.924;2024-03-07T03:28:59;100952.34;;;9.52;57.49
30875;BME280;17581;43.222;27.924;2024-03-07T03:31:25;100964.78;;;9.66;57.16
30875;BME280;17581;43.222;27.924;2024-03-07T03:33:50;100949.72;;;9.63;57.22
30875;BME280;17581;43.222;27.924;2024-03-07T03:36:16;100971.41;;;9.73;57.30
30875;BME280;17581;43.222;27.924;2024-03-07T03:38:41;100962.47;;;9.72;57.22
30875;BME280;17581;43.222;27.924;2024-03-07T03:41:07;100956.38;;;9.70;56.86
30875;BME280;17581;43.222;27.924;2024-03-07T03:43:32;100968.59;;;9.87;56.30
30875;BME280;17581;43.222;27.924;2024-03-07T03:45:58;100964.94;;;9.75;56.63
30875;BME280;17581;43.222;27.924;2024-03-07T03:48:23;100974.81;;;9.88;56.74
30875;BME280;17581;43.222;27.924;2024-03-07T03:50:49;100975.34;;;9.93;56.69
30875;BME280;17581;43.222;27.924;2024-03-07T03:53:14;100963.31;;;9.85;56.80
30875;BME280;17581;43.222;27.924;2024-03-07T03:55:40;100967.59;;;9.88;56.43
30875;BME280;17581;43.222;27.924;2024-03-07T03:58:05;100969.97;;;9.93;56.32
30875;BME280;17581;43.222;27.924;2024-03-07T04:00:31;100955.44;;;9.95;56.16
30875;BME280;17581;43.222;27.924;2024-03-07T04:02:56;100971.38;;;9.85;56.30
30875;BME280;17581;43.222;27.924;2024-03-07T04:05:23;100978.25;;;9.90;56.39
30875;BME280;17581;43.222;27.924;2024-03-07T04:07:49;100962.88;;;9.92;56.27
30875;BME280;17581;43.222;27.924;2024-03-07T04:10:15;100951.84;;;9.83;55.81
30875;BME280;17581;43.222;27.924;2024-03-07T04:12:42;100965.44;;;9.93;56.03
30875;BME280;17581;43.222;27.924;2024-03-07T04:15:09;100945.59;;;9.83;55.75
30875;BME280;17581;43.222;27.924;2024-03-07T04:17:35;100953.34;;;9.88;55.88
30875;BME280;17581;43.222;27.924;2024-03-07T04:20:01;100966.91;;;9.97;56.03
30875;BME280;17581;43.222;27.924;2024-03-07T04:22:31;100970.47;;;9.98;54.92
30875;BME280;17581;43.222;27.924;2024-03-07T04:24:56;100964.88;;;10.01;54.67
30875;BME280;17581;43.222;27.924;2024-03-07T04:27:21;100971.75;;;10.05;54.01
30875;BME280;17581;43.222;27.924;2024-03-07T04:29:47;100970.88;;;10.04;53.81
30875;BME280;17581;43.222;27.924;2024-03-07T04:32:14;100968.31;;;10.03;53.51
30875;BME280;17581;43.222;27.924;2024-03-07T04:34:39;100961.69;;;9.96;53.34
30875;BME280;17581;43.222;27.924;2024-03-07T04:37:08;100969.84;;;9.94;53.18
30875;BME280;17581;43.222;27.924;2024-03-07T04:39:34;100974.91;;;9.86;53.28
30875;BME280;17581;43.222;27.924;2024-03-07T04:42:03;100964.06;;;9.88;53.36
30875;BME280;17581;43.222;27.924;2024-03-07T04:44:29;100990.94;;;9.88;53.37
30875;BME280;17581;43.222;27.924;2024-03-07T04:46:55;100989.50;;;9.95;53.41
30875;BME280;17581;43.222;27.924;2024-03-07T04:49:25;100992.97;;;9.97;53.33
30875;BME280;17581;43.222;27.924;2024-03-07T04:51:52;100991.97;;;9.98;53.15
30875;BME280;17581;43.222;27.924;2024-03-07T04:54:18;100972.88;;;9.90;52.95
30875;BME280;17581;43.222;27.924;2024-03-07T04:56:47;100983.84;;;9.87;53.20
30875;BME280;17581;43.222;27.924;2024-03-07T04:59:14;100989.50;;;9.95;52.85
30875;BME280;17581;43.222;27.924;2024-03-07T05:01:40;100988.31;;;9.99;52.87
30875;BME280;17581;43.222;27.924;2024-03-07T05:04:06;101002.28;;;10.04;52.35
30875;BME280;17581;43.222;27.924;2024-03-07T05:06:38;100992.19;;;9.95;52.72
30875;BME280;17581;43.222;27.924;2024-03-07T05:09:05;101006.41;;;9.97;52.56
30875;BME280;17581;43.222;27.924;2024-03-07T05:11:32;100999.09;;;9.86;52.96
30875;BME280;17581;43.222;27.924;2024-03-07T05:13:58;100995.47;;;9.87;53.06
30875;BME280;17581;43.222;27.924;2024-03-07T05:16:24;101017.81;;;9.88;53.05
30875;BME280;17581;43.222;27.924;2024-03-07T05:18:50;101001.72;;;9.75;52.96
30875;BME280;17581;43.222;27.924;2024-03-07T05:21:16;100989.69;;;9.68;53.19
30875;BME280;17581;43.222;27.924;2024-03-07T05:23:57;101004.94;;;9.67;53.51
30875;BME280;17581;43.222;27.924;2024-03-07T05:26:24;101012.69;;;9.72;53.87
30875;BME280;17581;43.222;27.924;2024-03-07T05:28:49;101009.34;;;9.68;54.02
30875;BME280;17581;43.222;27.924;2024-03-07T05:31:14;101008.34;;;9.69;53.91
30875;BME280;17581;43.222;27.924;2024-03-07T05:33:41;101012.69;;;9.72;53.80
30875;BME280;17581;43.222;27.924;2024-03-07T05:36:07;101023.00;;;9.65;53.72
30875;BME280;17581;43.222;27.924;2024-03-07T05:38:42;101017.19;;;9.71;54.25
30875;BME280;17581;43.222;27.924;2024-03-07T05:41:13;101018.03;;;9.84;54.09
30875;BME280;17581;43.222;27.924;2024-03-07T05:43:39;101019.50;;;9.89;53.35
30875;BME280;17581;43.222;27.924;2024-03-07T05:46:05;101000.19;;;9.83;52.91
30875;BME280;17581;43.222;27.924;2024-03-07T05:48:32;101024.44;;;9.95;53.11
30875;BME280;17581;43.222;27.924;2024-03-07T05:50:58;101023.75;;;10.04;52.93
30875;BME280;17581;43.222;27.924;2024-03-07T05:53:24;101025.50;;;10.05;52.35
30875;BME280;17581;43.222;27.924;2024-03-07T05:55:50;101030.41;;;10.11;52.71
30875;BME280;17581;43.222;27.924;2024-03-07T05:58:15;101030.28;;;10.12;52.71
30875;BME280;17581;43.222;27.924;2024-03-07T06:00:46;101032.78;;;10.15;52.67
30875;BME280;17581;43.222;27.924;2024-03-07T06:03:21;101014.28;;;10.11;52.69
30875;BME280;17581;43.222;27.924;2024-03-07T06:05:49;101029.56;;;10.23;52.90
30875;BME280;17581;43.222;27.924;2024-03-07T06:08:18;101030.63;;;10.20;53.53
30875;BME280;17581;43.222;27.924;2024-03-07T06:10:46;101037.03;;;10.30;54.03
30875;BME280;17581;43.222;27.924;2024-03-07T06:13:13;101037.63;;;10.23;55.03
30875;BME280;17581;43.222;27.924;2024-03-07T06:15:39;101045.16;;;10.18;55.65
30875;BME280;17581;43.222;27.924;2024-03-07T06:18:05;101046.78;;;10.20;56.43
30875;BME280;17581;43.222;27.924;2024-03-07T06:20:33;101044.59;;;10.13;57.28
30875;BME280;17581;43.222;27.924;2024-03-07T06:23:00;101058.03;;;10.13;57.91
30875;BME280;17581;43.222;27.924;2024-03-07T06:25:29;101061.59;;;10.01;59.00
30875;BME280;17581;43.222;27.924;2024-03-07T06:28:16;101057.53;;;10.08;58.75
30875;BME280;17581;43.222;27.924;2024-03-07T06:30:45;101061.81;;;10.10;59.20
30875;BME280;17581;43.222;27.924;2024-03-07T06:33:12;101042.91;;;10.12;58.83
30875;BME280;17581;43.222;27.924;2024-03-07T06:35:38;101057.50;;;10.33;59.31
30875;BME280;17581;43.222;27.924;2024-03-07T06:38:10;101056.03;;;10.40;58.43
30875;BME280;17581;43.222;27.924;2024-03-07T06:40:39;101048.78;;;10.53;58.13
30875;BME280;17581;43.222;27.924;2024-03-07T06:43:06;101062.59;;;10.72;57.76
30875;BME280;17581;43.222;27.924;2024-03-07T06:45:35;101060.69;;;10.85;57.08
30875;BME280;17581;43.222;27.924;2024-03-07T06:48:05;101041.63;;;10.88;56.87
30875;BME280;17581;43.222;27.924;2024-03-07T06:50:33;101051.31;;;11.02;56.39
30875;BME280;17581;43.222;27.924;2024-03-07T06:52:59;101039.59;;;11.03;55.19
30875;BME280;17581;43.222;27.924;2024-03-07T06:55:24;101022.81;;;11.00;54.86
30875;BME280;17581;43.222;27.924;2024-03-07T06:57:50;101032.91;;;11.20;53.99
30875;BME280;17581;43.222;27.924;2024-03-07T07:00:15;101041.75;;;11.33;53.73
30875;BME280;17581;43.222;27.924;2024-03-07T07:02:45;101042.38;;;11.36;53.07
30875;BME280;17581;43.222;27.924;2024-03-07T07:05:12;101039.91;;;11.33;53.86
30875;BME280;17581;43.222;27.924;2024-03-07T07:07:38;101043.72;;;11.31;54.36
30875;BME280;17581;43.222;27.924;2024-03-07T07:10:04;101041.97;;;11.19;53.77
30875;BME280;17581;43.222;27.924;2024-03-07T07:12:33;101040.94;;;11.09;53.99
30875;BME280;17581;43.222;27.924;2024-03-07T07:15:00;101031.31;;;11.17;54.03
30875;BME280;17581;43.222;27.924;2024-03-07T07:17:25;101045.16;;;11.24;53.05
30875;BME280;17581;43.222;27.924;2024-03-07T07:19:54;101033.84;;;11.08;52.84
30875;BME280;17581;43.222;27.924;2024-03-07T07:22:21;101053.81;;;11.16;53.62
30875;BME280;17581;43.222;27.924;2024-03-07T07:24:46;101043.66;;;11.09;53.17
30875;BME280;17581;43.222;27.924;2024-03-07T07:27:12;101053.81;;;11.16;52.53
30875;BME280;17581;43.222;27.924;2024-03-07T07:29:37;101058.59;;;11.13;52.25
30875;BME280;17581;43.222;27.924;2024-03-07T07:32:04;101051.59;;;11.10;53.38
30875;BME280;17581;43.222;27.924;2024-03-07T07:34:30;101064.03;;;11.35;53.91
30875;BME280;17581;43.222;27.924;2024-03-07T07:36:55;101057.91;;;11.44;54.20
30875;BME280;17581;43.222;27.924;2024-03-07T07:39:21;101063.06;;;11.47;55.04
30875;BME280;17581;43.222;27.924;2024-03-07T07:41:47;101053.25;;;11.35;54.90
30875;BME280;17581;43.222;27.924;2024-03-07T07:44:12;101063.53;;;11.41;55.05
30875;BME280;17581;43.222;27.924;2024-03-07T07:46:39;101069.63;;;11.32;56.17
30875;BME280;17581;43.222;27.924;2024-03-07T07:49:06;101072.38;;;11.43;56.40
30875;BME280;17581;43.222;27.924;2024-03-07T07:51:31;101075.69;;;11.58;56.70
30875;BME280;17581;43.222;27.924;2024-03-07T07:53:57;101079.75;;;11.63;56.70
30875;BME280;17581;43.222;27.924;2024-03-07T07:56:23;101074.84;;;11.57;57.35
30875;BME280;17581;43.222;27.924;2024-03-07T07:58:49;101070.31;;;11.58;57.58
30875;BME280;17581;43.222;27.924;2024-03-07T08:01:15;101079.75;;;11.63;56.88
30875;BME280;17581;43.222;27.924;2024-03-07T08:03:43;101069.59;;;11.67;56.78
30875;BME280;17581;43.222;27.924;2024-03-07T08:06:09;101071.50;;;11.42;57.46
30875;BME280;17581;43.222;27.924;2024-03-07T08:08:34;101081.91;;;11.36;57.89
30875;BME280;17581;43.222;27.924;2024-03-07T08:10:59;101081.50;;;11.29;57.96
30875;BME280;17581;43.222;27.924;2024-03-07T08:13:26;101093.69;;;11.46;57.85
30875;BME280;17581;43.222;27.924;2024-03-07T08:15:52;101087.03;;;11.28;57.84
30875;BME280;17581;43.222;27.924;2024-03-07T08:18:19;101097.09;;;11.37;58.23
30875;BME280;17581;43.222;27.924;2024-03-07T08:20:45;101096.38;;;11.46;57.38
30875;BME280;17581;43.222;27.924;2024-03-07T08:23:11;101093.69;;;11.46;57.84
30875;BME280;17581;43.222;27.924;2024-03-07T08:25:38;101098.84;;;11.60;57.70
30875;BME280;17581;43.222;27.924;2024-03-07T08:28:07;101085.94;;;11.41;57.83
30875;BME280;17581;43.222;27.924;2024-03-07T08:30:33;101098.34;;;11.55;56.87
30875;BME280;17581;43.222;27.924;2024-03-07T08:33:00;101096.88;;;11.51;56.76
30875;BME280;17581;43.222;27.924;2024-03-07T08:35:28;101089.78;;;11.61;56.28
30875;BME280;17581;43.222;27.924;2024-03-07T08:37:55;101086.97;;;11.63;56.40
30875;BME280;17581;43.222;27.924;2024-03-07T08:40:24;101104.03;;;11.74;55.63
30875;BME280;17581;43.222;27.924;2024-03-07T08:42:51;101099.50;;;11.75;55.21
30875;BME280;17581;43.222;27.924;2024-03-07T08:45:19;101094.97;;;11.75;56.33
30875;BME280;17581;43.222;27.924;2024-03-07T08:47:49;101087.66;;;11.88;55.77
30875;BME280;17581;43.222;27.924;2024-03-07T08:50:17;101105.75;;;11.86;56.17
30875;BME280;17581;43.222;27.924;2024-03-07T08:52:44;101095.25;;;11.94;55.90
30875;BME280;17581;43.222;27.924;2024-03-07T08:55:12;101096.97;;;11.95;55.36
30875;BME280;17581;43.222;27.924;2024-03-07T08:57:41;101110.19;;;12.10;55.27
30875;BME280;17581;43.222;27.924;2024-03-07T09:00:09;101105.28;;;12.26;54.98
30875;BME280;17581;43.222;27.924;2024-03-07T09:02:38;101116.81;;;12.28;54.90
30875;BME280;17581;43.222;27.924;2024-03-07T09:05:05;101113.97;;;12.40;53.54
30875;BME280;17581;43.222;27.924;2024-03-07T09:07:31;101095.44;;;12.36;53.22
30875;BME280;17581;43.222;27.924;2024-03-07T09:09:57;101107.25;;;12.24;54.72
30875;BME280;17581;43.222;27.924;2024-03-07T09:12:23;101106.03;;;12.17;54.85
30875;BME280;17581;43.222;27.924;2024-03-07T09:14:50;101114.72;;;12.31;54.83
30875;BME280;17581;43.222;27.924;2024-03-07T09:17:17;101110.19;;;12.32;54.03
30875;BME280;17581;43.222;27.924;2024-03-07T09:19:43;101099.88;;;12.37;53.62
30875;BME280;17581;43.222;27.924;2024-03-07T09:22:08;101110.06;;;12.44;53.23
30875;BME280;17581;43.222;27.924;2024-03-07T09:24:34;101123.63;;;12.65;52.71
30875;BME280;17581;43.222;27.924;2024-03-07T09:27:00;101126.69;;;12.61;52.68
30875;BME280;17581;43.222;27.924;2024-03-07T09:29:26;101114.09;;;12.50;54.52
30875;BME280;17581;43.222;27.924;2024-03-07T09:31:53;101117.47;;;12.63;54.10
30875;BME280;17581;43.222;27.924;2024-03-07T09:34:19;101117.47;;;12.63;55.15
30875;BME280;17581;43.222;27.924;2024-03-07T09:36:46;101126.78;;;12.70;55.00
30875;BME280;17581;43.222;27.924;2024-03-07T09:39:12;101100.72;;;12.48;54.23
30875;BME280;17581;43.222;27.924;2024-03-07T09:41:40;101113.59;;;12.45;53.60
30875;BME280;17581;43.222;27.924;2024-03-07T09:44:08;101119.84;;;12.57;53.02
30875;BME280;17581;43.222;27.924;2024-03-07T09:46:36;101119.72;;;12.47;54.52
30875;BME280;17581;43.222;27.924;2024-03-07T09:49:02;101117.50;;;12.52;55.84
30875;BME280;17581;43.222;27.924;2024-03-07T09:51:27;101126.31;;;12.65;56.53
30875;BME280;17581;43.222;27.924;2024-03-07T09:53:57;101094.31;;;12.61;56.09
30875;BME280;17581;43.222;27.924;2024-03-07T09:56:27;101127.72;;;12.91;55.54
30875;BME280;17581;43.222;27.924;2024-03-07T09:59:05;101131.38;;;13.01;55.23
30875;BME280;17581;43.222;27.924;2024-03-07T10:01:35;101133.63;;;12.96;55.59
30875;BME280;17581;43.222;27.924;2024-03-07T10:04:05;101127.97;;;12.99;55.23
30875;BME280;17581;43.222;27.924;2024-03-07T10:06:41;101125.56;;;12.74;55.29
30875;BME280;17581;43.222;27.924;2024-03-07T10:09:07;101137.59;;;12.70;55.49
30875;BME280;17581;43.222;27.924;2024-03-07T10:11:33;101117.25;;;12.55;55.71
30875;BME280;17581;43.222;27.924;2024-03-07T10:13:59;101106.56;;;12.65;55.30
30875;BME280;17581;43.222;27.924;2024-03-07T10:16:25;101123.25;;;12.59;55.35
30875;BME280;17581;43.222;27.924;2024-03-07T10:18:50;101112.34;;;12.60;56.03
30875;BME280;17581;43.222;27.924;2024-03-07T10:21:21;101091.38;;;12.52;56.29
30875;BME280;17581;43.222;27.924;2024-03-07T10:23:49;101119.00;;;12.34;57.50
30875;BME280;17581;43.222;27.924;2024-03-07T10:26:17;101100.63;;;12.28;57.81
30875;BME280;17581;43.222;27.924;2024-03-07T10:28:43;101103.81;;;12.22;56.61
30875;BME280;17581;43.222;27.924;2024-03-07T10:31:08;101106.25;;;12.25;56.32
30875;BME280;17581;43.222;27.924;2024-03-07T10:33:37;101091.78;;;12.15;56.48
30875;BME280;17581;43.222;27.924;2024-03-07T10:36:04;101098.91;;;12.16;56.54
30875;BME280;17581;43.222;27.924;2024-03-07T10:38:30;101088.88;;;12.07;56.04
30875;BME280;17581;43.222;27.924;2024-03-07T10:40:56;101089.09;;;12.15;56.59
30875;BME280;17581;43.222;27.924;2024-03-07T10:43:22;101086.06;;;12.19;56.26
30875;BME280;17581;43.222;27.924;2024-03-07T10:45:48;101096.09;;;12.17;56.33
30875;BME280;17581;43.222;27.924;2024-03-07T10:48:18;101097.06;;;12.05;56.25
30875;BME280;17581;43.222;27.924;2024-03-07T10:53:31;101103.56;;;12.25;55.11
30875;BME280;17581;43.222;27.924;2024-03-07T10:56:21;101095.44;;;12.36;55.38
30875;BME280;17581;43.222;27.924;2024-03-07T10:59:10;101078.31;;;12.26;55.45
30875;BME280;17581;43.222;27.924;2024-03-07T11:04:31;101095.47;;;12.47;55.09
30875;BME280;17581;43.222;27.924;2024-03-07T11:06:58;101077.34;;;12.16;55.41
30875;BME280;17581;43.222;27.924;2024-03-07T11:09:24;101097.19;;;12.37;54.84
30875;BME280;17581;43.222;27.924;2024-03-07T11:11:56;101097.28;;;12.46;55.19
30875;BME280;17581;43.222;27.924;2024-03-07T11:14:22;101082.72;;;12.38;54.97
30875;BME280;17581;43.222;27.924;2024-03-07T11:16:49;101096.78;;;12.52;54.98
30875;BME280;17581;43.222;27.924;2024-03-07T11:21:44;101080.13;;;12.47;54.41
30875;BME280;17581;43.222;27.924;2024-03-07T11:24:09;101089.44;;;12.43;54.55
30875;BME280;17581;43.222;27.924;2024-03-07T11:26:47;101082.09;;;12.34;54.03
30875;BME280;17581;43.222;27.924;2024-03-07T11:29:49;101096.31;;;12.36;54.76
30875;BME280;17581;43.222;27.924;2024-03-07T11:32:23;101072.94;;;12.26;54.27
30875;BME280;17581;43.222;27.924;2024-03-07T11:34:49;101090.81;;;12.27;54.32
30875;BME280;17581;43.222;27.924;2024-03-07T11:37:37;101084.91;;;12.33;54.33
30875;BME280;17581;43.222;27.924;2024-03-07T11:40:58;101089.34;;;12.34;53.93
30875;BME280;17581;43.222;27.924;2024-03-07T11:42:57;101074.88;;;12.24;54.08
30875;BME280;17581;43.222;27.924;2024-03-07T11:45:25;101077.72;;;12.22;53.79
30875;BME280;17581;43.222;27.924;2024-03-07T11:50:32;101067.66;;;12.13;53.71
30875;BME280;17581;43.222;27.924;2024-03-07T11:53:01;101082.50;;;12.08;53.02
30875;BME280;17581;43.222;27.924;2024-03-07T11:55:28;101069.63;;;12.11;52.73
30875;BME280;17581;43.222;27.924;2024-03-07T12:00:43;101061.06;;;12.06;52.86
30875;BME280;17581;43.222;27.924;2024-03-07T12:03:11;101056.63;;;12.16;53.82
30875;BME280;17581;43.222;27.924;2024-03-07T12:05:42;101071.09;;;12.15;54.40
30875;BME280;17581;43.222;27.924;2024-03-07T12:08:24;101065.09;;;12.12;55.16
30875;BME280;17581;43.222;27.924;2024-03-07T12:10:52;101079.28;;;12.25;54.61
30875;BME280;17581;43.222;27.924;2024-03-07T12:13:22;101076.59;;;11.80;54.57
30875;BME280;17581;43.222;27.924;2024-03-07T12:15:48;101084.59;;;12.04;54.63
30875;BME280;17581;43.222;27.924;2024-03-07T12:18:18;101076.25;;;12.18;54.59
30875;BME280;17581;43.222;27.924;2024-03-07T12:20:45;101081.50;;;12.31;54.16
30875;BME280;17581;43.222;27.924;2024-03-07T12:23:33;101070.22;;;12.37;53.65
30875;BME280;17581;43.222;27.924;2024-03-07T12:26:03;101078.78;;;12.31;53.21
30875;BME280;17581;43.222;27.924;2024-03-07T12:28:28;101082.94;;;12.46;53.18
30875;BME280;17581;43.222;27.924;2024-03-07T12:30:58;101091.03;;;12.46;53.48
30875;BME280;17581;43.222;27.924;2024-03-07T12:33:28;101076.78;;;12.55;52.97
30875;BME280;17581;43.222;27.924;2024-03-07T12:35:54;101075.66;;;12.69;52.75
30875;BME280;17581;43.222;27.924;2024-03-07T12:38:31;101084.78;;;12.45;53.66
30875;BME280;17581;43.222;27.924;2024-03-07T12:41:09;101083.34;;;12.41;53.67
30875;BME280;17581;43.222;27.924;2024-03-07T12:43:41;101066.91;;;12.33;53.93
30875;BME280;17581;43.222;27.924;2024-03-07T12:46:13;101081.09;;;12.46;53.86
30875;BME280;17581;43.222;27.924;2024-03-07T12:48:40;101079.53;;;12.33;54.05
30875;BME280;17581;43.222;27.924;2024-03-07T12:51:05;101071.69;;;12.30;54.65
30875;BME280;17581;43.222;27.924;2024-03-07T12:53:31;101059.56;;;12.24;54.41
30875;BME280;17581;43.222;27.924;2024-03-07T12:55:57;101062.16;;;12.04;54.45
30875;BME280;17581;43.222;27.924;2024-03-07T12:58:22;101059.94;;;11.86;55.38